SYN002 KDEN-KSLC
Flight info
| Callsign | SYN002 |
|---|---|
| Flight time | 1h 2m |
| Altitude | 36000 |
| Route | ZIMMR4 CHNGY EKR PITTT2 |
| Aircraft | BCS3/M-SBDE2E3GIRWXY/LB1 |
Departure
| Time | 2026-05-08 04:57 |
|---|---|
| Airport | Denver International Airport (KDEN) |
Arrival
| Time | 2026-05-08 05:59 |
|---|---|
| Airport | Salt Lake City International Airport (KSLC) |
| Time | Latitude | Longitude | Altitude | Speed | Heading |
|---|---|---|---|---|---|
| 2026-05-08 04:27 | 39.85932 | -104.67134 | 5382 ft | 0 kts | 181° |
| 2026-05-08 04:40 | 39.85937 | -104.67134 | 5382 ft | 3 kts | 181° |
| 2026-05-08 04:40 | 39.85955 | -104.67131 | 5379 ft | 3 kts | 204° |
| 2026-05-08 04:41 | 39.85970 | -104.67119 | 5376 ft | 3 kts | 232° |
| 2026-05-08 04:41 | 39.85978 | -104.67100 | 5375 ft | 2 kts | 252° |
| 2026-05-08 04:41 | 39.85983 | -104.67080 | 5376 ft | 2 kts | 252° |
| 2026-05-08 04:41 | 39.85986 | -104.67063 | 5378 ft | 0 kts | 269° |
| 2026-05-08 04:48 | 39.85986 | -104.67064 | 5378 ft | 1 kts | 269° |
| 2026-05-08 04:48 | 39.85986 | -104.67099 | 5376 ft | 7 kts | 269° |
| 2026-05-08 04:48 | 39.85999 | -104.67188 | 5377 ft | 13 kts | 287° |
| 2026-05-08 04:49 | 39.86001 | -104.67304 | 5381 ft | 14 kts | 270° |
| 2026-05-08 04:49 | 39.86002 | -104.67447 | 5378 ft | 18 kts | 270° |
| 2026-05-08 04:49 | 39.86004 | -104.67632 | 5378 ft | 22 kts | 270° |
| 2026-05-08 04:49 | 39.86006 | -104.67849 | 5376 ft | 26 kts | 275° |
| 2026-05-08 04:50 | 39.86030 | -104.68084 | 5374 ft | 27 kts | 273° |
| 2026-05-08 04:50 | 39.86014 | -104.68315 | 5370 ft | 22 kts | 260° |
| 2026-05-08 04:50 | 39.85998 | -104.68387 | 5368 ft | 1 kts | 217° |
| 2026-05-08 04:50 | 39.85988 | -104.68391 | 5368 ft | 3 kts | 194° |
| 2026-05-08 04:51 | 39.85948 | -104.68397 | 5370 ft | 8 kts | 182° |
| 2026-05-08 04:51 | 39.85875 | -104.68397 | 5369 ft | 13 kts | 180° |
| 2026-05-08 04:51 | 39.85764 | -104.68400 | 5370 ft | 19 kts | 181° |
| 2026-05-08 04:51 | 39.85610 | -104.68403 | 5375 ft | 25 kts | 180° |
| 2026-05-08 04:52 | 39.85425 | -104.68403 | 5378 ft | 28 kts | 180° |
| 2026-05-08 04:52 | 39.85250 | -104.68406 | 5382 ft | 15 kts | 185° |
| 2026-05-08 04:52 | 39.85232 | -104.68415 | 5382 ft | 2 kts | 215° |
| 2026-05-08 04:52 | 39.85212 | -104.68449 | 5379 ft | 8 kts | 244° |
| 2026-05-08 04:53 | 39.85206 | -104.68547 | 5376 ft | 15 kts | 271° |
| 2026-05-08 04:53 | 39.85203 | -104.68712 | 5369 ft | 22 kts | 268° |
| 2026-05-08 04:53 | 39.85198 | -104.68929 | 5360 ft | 26 kts | 268° |
| 2026-05-08 04:53 | 39.85197 | -104.69160 | 5350 ft | 25 kts | 271° |
| 2026-05-08 04:54 | 39.85202 | -104.69404 | 5343 ft | 29 kts | 270° |
| 2026-05-08 04:54 | 39.85216 | -104.69629 | 5337 ft | 14 kts | 298° |
| 2026-05-08 04:54 | 39.85242 | -104.69654 | 5337 ft | 1 kts | 354° |
| 2026-05-08 04:54 | 39.85251 | -104.69655 | 5338 ft | 2 kts | 354° |
| 2026-05-08 04:55 | 39.85264 | -104.69656 | 5338 ft | 0 kts | 357° |
| 2026-05-08 04:56 | 39.85277 | -104.69657 | 5338 ft | 7 kts | 357° |
| 2026-05-08 04:56 | 39.85504 | -104.69654 | 5342 ft | 64 kts | 0° |
| 2026-05-08 04:56 | 39.86153 | -104.69646 | 5338 ft | 122 kts | 1° |
| 2026-05-08 04:57 | 39.87160 | -104.69614 | 5547 ft | 151 kts | 4° |
| 2026-05-08 04:57 | 39.88210 | -104.69607 | 6228 ft | 157 kts | 0° |
| 2026-05-08 04:57 | 39.89338 | -104.69587 | 6789 ft | 163 kts | 0° |
| 2026-05-08 04:57 | 39.90470 | -104.69526 | 7440 ft | 165 kts | 0° |
| 2026-05-08 04:58 | 39.91646 | -104.69484 | 7938 ft | 177 kts | 351° |
| 2026-05-08 04:58 | 39.92745 | -104.70237 | 8405 ft | 188 kts | 310° |
| 2026-05-08 04:58 | 39.93256 | -104.71843 | 8923 ft | 203 kts | 275° |
| 2026-05-08 04:58 | 39.93117 | -104.73744 | 9465 ft | 220 kts | 264° |
| 2026-05-08 04:59 | 39.92965 | -104.75763 | 10054 ft | 233 kts | 269° |
| 2026-05-08 04:59 | 39.92934 | -104.77946 | 10597 ft | 248 kts | 272° |
| 2026-05-08 04:59 | 39.92988 | -104.80263 | 11159 ft | 263 kts | 274° |
| 2026-05-08 04:59 | 39.93091 | -104.82701 | 11711 ft | 276 kts | 275° |
| 2026-05-08 05:00 | 39.93211 | -104.85236 | 12422 ft | 281 kts | 275° |
| 2026-05-08 05:00 | 39.93335 | -104.87779 | 13265 ft | 281 kts | 276° |
| 2026-05-08 05:00 | 39.93464 | -104.90340 | 13822 ft | 290 kts | 276° |
| 2026-05-08 05:00 | 39.93603 | -104.93033 | 14109 ft | 305 kts | 276° |
| 2026-05-08 05:01 | 39.93750 | -104.95843 | 14474 ft | 315 kts | 276° |
| 2026-05-08 05:01 | 39.93898 | -104.98703 | 15073 ft | 318 kts | 276° |
| 2026-05-08 05:01 | 39.94049 | -105.01585 | 15666 ft | 321 kts | 276° |
| 2026-05-08 05:01 | 39.94201 | -105.04494 | 16315 ft | 323 kts | 276° |
| 2026-05-08 05:02 | 39.94354 | -105.07422 | 16897 ft | 326 kts | 276° |
| 2026-05-08 05:02 | 39.94510 | -105.10389 | 17488 ft | 329 kts | 276° |
| 2026-05-08 05:02 | 39.94667 | -105.13383 | 18102 ft | 332 kts | 276° |
| 2026-05-08 05:02 | 39.94825 | -105.16402 | 18646 ft | 335 kts | 276° |
| 2026-05-08 05:03 | 39.94984 | -105.19448 | 19197 ft | 337 kts | 276° |
| 2026-05-08 05:03 | 39.95141 | -105.22473 | 19711 ft | 341 kts | 276° |
| 2026-05-08 05:03 | 39.95301 | -105.25558 | 20230 ft | 343 kts | 276° |
| 2026-05-08 05:03 | 39.95462 | -105.28684 | 20756 ft | 346 kts | 276° |
| 2026-05-08 05:04 | 39.95624 | -105.31836 | 21259 ft | 349 kts | 276° |
| 2026-05-08 05:04 | 39.95786 | -105.35002 | 21775 ft | 352 kts | 276° |
| 2026-05-08 05:04 | 39.95948 | -105.38194 | 22300 ft | 355 kts | 276° |
| 2026-05-08 05:04 | 39.96112 | -105.41423 | 22813 ft | 358 kts | 276° |
| 2026-05-08 05:05 | 39.96277 | -105.44700 | 23046 ft | 366 kts | 276° |
| 2026-05-08 05:05 | 39.96444 | -105.48022 | 23055 ft | 365 kts | 276° |
| 2026-05-08 05:05 | 39.96605 | -105.51275 | 23042 ft | 356 kts | 276° |
| 2026-05-08 05:05 | 39.96764 | -105.54497 | 23034 ft | 358 kts | 276° |
| 2026-05-08 05:06 | 39.96926 | -105.57755 | 23029 ft | 361 kts | 276° |
| 2026-05-08 05:06 | 39.97086 | -105.61019 | 23083 ft | 359 kts | 276° |
| 2026-05-08 05:06 | 39.97245 | -105.64274 | 23242 ft | 362 kts | 276° |
| 2026-05-08 05:06 | 39.97406 | -105.67539 | 23812 ft | 363 kts | 276° |
| 2026-05-08 05:07 | 39.97574 | -105.70783 | 24299 ft | 365 kts | 276° |
| 2026-05-08 05:07 | 39.97745 | -105.74087 | 24821 ft | 366 kts | 277° |
| 2026-05-08 05:07 | 39.97916 | -105.77412 | 25254 ft | 369 kts | 277° |
| 2026-05-08 05:07 | 39.98085 | -105.80761 | 25716 ft | 371 kts | 277° |
| 2026-05-08 05:08 | 39.98255 | -105.84125 | 26163 ft | 373 kts | 277° |
| 2026-05-08 05:08 | 39.98425 | -105.87513 | 26611 ft | 375 kts | 278° |
| 2026-05-08 05:08 | 39.98593 | -105.90927 | 27044 ft | 377 kts | 278° |
| 2026-05-08 05:08 | 39.98756 | -105.94357 | 27457 ft | 379 kts | 278° |
| 2026-05-08 05:09 | 39.98907 | -105.97799 | 27849 ft | 382 kts | 278° |
| 2026-05-08 05:09 | 39.99046 | -106.01270 | 28240 ft | 384 kts | 278° |
| 2026-05-08 05:09 | 39.99213 | -106.04712 | 28634 ft | 385 kts | 279° |
| 2026-05-08 05:09 | 39.99394 | -106.08219 | 28936 ft | 389 kts | 279° |
| 2026-05-08 05:10 | 39.99571 | -106.11740 | 29356 ft | 390 kts | 280° |
| 2026-05-08 05:10 | 39.99920 | -106.18835 | 30011 ft | 394 kts | 280° |
| 2026-05-08 05:10 | 40.00093 | -106.22439 | 30293 ft | 397 kts | 280° |
| 2026-05-08 05:11 | 40.00264 | -106.26048 | 30594 ft | 398 kts | 280° |
| 2026-05-08 05:11 | 40.00433 | -106.29663 | 30833 ft | 401 kts | 280° |
| 2026-05-08 05:11 | 40.00602 | -106.33303 | 31060 ft | 403 kts | 280° |
| 2026-05-08 05:11 | 40.00769 | -106.36955 | 31300 ft | 404 kts | 280° |
| 2026-05-08 05:12 | 40.00934 | -106.40587 | 31513 ft | 406 kts | 280° |
| 2026-05-08 05:12 | 40.01100 | -106.44280 | 31770 ft | 408 kts | 280° |
| 2026-05-08 05:12 | 40.01266 | -106.47988 | 31999 ft | 410 kts | 280° |
| 2026-05-08 05:12 | 40.01430 | -106.51705 | 32163 ft | 410 kts | 280° |
| 2026-05-08 05:13 | 40.01594 | -106.55435 | 32295 ft | 413 kts | 280° |
| 2026-05-08 05:13 | 40.01757 | -106.59184 | 32506 ft | 414 kts | 280° |
| 2026-05-08 05:13 | 40.01916 | -106.62885 | 32680 ft | 415 kts | 279° |
| 2026-05-08 05:13 | 40.02078 | -106.66666 | 32877 ft | 417 kts | 279° |
| 2026-05-08 05:14 | 40.02239 | -106.70449 | 33056 ft | 418 kts | 279° |
| 2026-05-08 05:14 | 40.02399 | -106.74246 | 33203 ft | 420 kts | 279° |
| 2026-05-08 05:14 | 40.02558 | -106.78054 | 33365 ft | 421 kts | 279° |
| 2026-05-08 05:14 | 40.02716 | -106.81885 | 33561 ft | 422 kts | 279° |
| 2026-05-08 05:15 | 40.02872 | -106.85696 | 33815 ft | 421 kts | 279° |
| 2026-05-08 05:15 | 40.03027 | -106.89526 | 34042 ft | 421 kts | 279° |
| 2026-05-08 05:15 | 40.03181 | -106.93341 | 34229 ft | 421 kts | 279° |
| 2026-05-08 05:15 | 40.03332 | -106.97105 | 34418 ft | 420 kts | 279° |
| 2026-05-08 05:16 | 40.03483 | -107.00914 | 34594 ft | 420 kts | 279° |
| 2026-05-08 05:16 | 40.03633 | -107.04720 | 34784 ft | 420 kts | 279° |
| 2026-05-08 05:16 | 40.03782 | -107.08532 | 34975 ft | 420 kts | 279° |
| 2026-05-08 05:16 | 40.03930 | -107.12340 | 35176 ft | 420 kts | 279° |
| 2026-05-08 05:17 | 40.04076 | -107.16147 | 35326 ft | 420 kts | 279° |
| 2026-05-08 05:17 | 40.04221 | -107.19954 | 35535 ft | 419 kts | 279° |
| 2026-05-08 05:17 | 40.04365 | -107.23763 | 35638 ft | 420 kts | 278° |
| 2026-05-08 05:17 | 40.04508 | -107.27570 | 35813 ft | 419 kts | 278° |
| 2026-05-08 05:18 | 40.04649 | -107.31372 | 35973 ft | 419 kts | 278° |
| 2026-05-08 05:18 | 40.04884 | -107.37722 | 36061 ft | 424 kts | 278° |
| 2026-05-08 05:19 | 40.05163 | -107.45472 | 36046 ft | 422 kts | 278° |
| 2026-05-08 05:19 | 40.05335 | -107.50459 | 36042 ft | 411 kts | 278° |
| 2026-05-08 05:19 | 40.05467 | -107.54195 | 36059 ft | 414 kts | 279° |
| 2026-05-08 05:20 | 40.05691 | -107.60544 | 36075 ft | 421 kts | 279° |
| 2026-05-08 05:20 | 40.05955 | -107.68243 | 36085 ft | 424 kts | 279° |
| 2026-05-08 05:21 | 40.06201 | -107.75741 | 36111 ft | 413 kts | 279° |
| 2026-05-08 05:21 | 40.06327 | -107.79505 | 35877 ft | 417 kts | 279° |
| 2026-05-08 05:21 | 40.06451 | -107.83293 | 35392 ft | 418 kts | 279° |
| 2026-05-08 05:21 | 40.06575 | -107.87095 | 34661 ft | 423 kts | 279° |
| 2026-05-08 05:22 | 40.06701 | -107.90970 | 33880 ft | 429 kts | 279° |
| 2026-05-08 05:22 | 40.06844 | -107.94844 | 33339 ft | 425 kts | 280° |
| 2026-05-08 05:22 | 40.07020 | -107.98681 | 32854 ft | 421 kts | 280° |
| 2026-05-08 05:22 | 40.07197 | -108.02498 | 32350 ft | 418 kts | 280° |
| 2026-05-08 05:23 | 40.07369 | -108.06249 | 32091 ft | 411 kts | 280° |
| 2026-05-08 05:23 | 40.07710 | -108.13678 | 32049 ft | 417 kts | 280° |
| 2026-05-08 05:24 | 40.08055 | -108.21328 | 32024 ft | 421 kts | 280° |
| 2026-05-08 05:24 | 40.08381 | -108.28847 | 31997 ft | 414 kts | 280° |
| 2026-05-08 05:25 | 40.08713 | -108.36444 | 31966 ft | 421 kts | 280° |
| 2026-05-08 05:25 | 40.09031 | -108.43999 | 31949 ft | 413 kts | 281° |
| 2026-05-08 05:26 | 40.09350 | -108.51551 | 31949 ft | 419 kts | 280° |
| 2026-05-08 05:26 | 40.09660 | -108.59127 | 31947 ft | 417 kts | 281° |
| 2026-05-08 05:27 | 40.09965 | -108.66676 | 31945 ft | 417 kts | 281° |
| 2026-05-08 05:27 | 40.10266 | -108.74216 | 31946 ft | 417 kts | 281° |
| 2026-05-08 05:28 | 40.10562 | -108.81758 | 31950 ft | 417 kts | 281° |
| 2026-05-08 05:28 | 40.10854 | -108.89335 | 31947 ft | 417 kts | 281° |
| 2026-05-08 05:29 | 40.11141 | -108.96892 | 31948 ft | 417 kts | 281° |
| 2026-05-08 05:29 | 40.11423 | -109.04471 | 31946 ft | 417 kts | 280° |
| 2026-05-08 05:30 | 40.11699 | -109.12033 | 31945 ft | 416 kts | 280° |
| 2026-05-08 05:30 | 40.11971 | -109.19566 | 31944 ft | 417 kts | 280° |
| 2026-05-08 05:31 | 40.12237 | -109.27133 | 31946 ft | 417 kts | 280° |
| 2026-05-08 05:31 | 40.12500 | -109.34707 | 31954 ft | 417 kts | 280° |
| 2026-05-08 05:32 | 40.12757 | -109.42272 | 31968 ft | 417 kts | 280° |
| 2026-05-08 05:32 | 40.13010 | -109.49852 | 31972 ft | 417 kts | 280° |
| 2026-05-08 05:33 | 40.13257 | -109.57425 | 31976 ft | 417 kts | 280° |
| 2026-05-08 05:33 | 40.13499 | -109.64960 | 31972 ft | 417 kts | 280° |
| 2026-05-08 05:34 | 40.13736 | -109.72533 | 31968 ft | 417 kts | 279° |
| 2026-05-08 05:34 | 40.13968 | -109.80099 | 31962 ft | 417 kts | 279° |
| 2026-05-08 05:35 | 40.14195 | -109.87664 | 31965 ft | 417 kts | 279° |
| 2026-05-08 05:35 | 40.14417 | -109.95235 | 31968 ft | 417 kts | 279° |
| 2026-05-08 05:36 | 40.14637 | -110.02829 | 31969 ft | 418 kts | 279° |
| 2026-05-08 05:36 | 40.14850 | -110.10408 | 31972 ft | 417 kts | 279° |
| 2026-05-08 05:37 | 40.14898 | -110.18033 | 31976 ft | 420 kts | 276° |
| 2026-05-08 05:37 | 40.14830 | -110.25651 | 31981 ft | 419 kts | 276° |
| 2026-05-08 05:38 | 40.14760 | -110.33240 | 31984 ft | 421 kts | 276° |
| 2026-05-08 05:38 | 40.14687 | -110.40890 | 31807 ft | 424 kts | 276° |
| 2026-05-08 05:38 | 40.14650 | -110.44767 | 31190 ft | 428 kts | 276° |
| 2026-05-08 05:39 | 40.14611 | -110.48660 | 30603 ft | 428 kts | 276° |
| 2026-05-08 05:39 | 40.14570 | -110.52542 | 30046 ft | 426 kts | 275° |
| 2026-05-08 05:39 | 40.14528 | -110.56419 | 29432 ft | 425 kts | 275° |
| 2026-05-08 05:39 | 40.14485 | -110.60278 | 28858 ft | 422 kts | 275° |
| 2026-05-08 05:40 | 40.14441 | -110.64099 | 28315 ft | 419 kts | 275° |
| 2026-05-08 05:40 | 40.14397 | -110.67891 | 27778 ft | 415 kts | 275° |
| 2026-05-08 05:40 | 40.14352 | -110.71623 | 27249 ft | 412 kts | 274° |
| 2026-05-08 05:40 | 40.14306 | -110.75361 | 26711 ft | 409 kts | 274° |
| 2026-05-08 05:41 | 40.14259 | -110.79068 | 26181 ft | 406 kts | 274° |
| 2026-05-08 05:41 | 40.14211 | -110.82749 | 25655 ft | 403 kts | 274° |
| 2026-05-08 05:41 | 40.14163 | -110.86403 | 25129 ft | 401 kts | 274° |
| 2026-05-08 05:41 | 40.14115 | -110.90032 | 24608 ft | 399 kts | 273° |
| 2026-05-08 05:42 | 40.14065 | -110.93652 | 24086 ft | 397 kts | 273° |
| 2026-05-08 05:42 | 40.14015 | -110.97258 | 23562 ft | 396 kts | 272° |
| 2026-05-08 05:42 | 40.13963 | -111.00805 | 22972 ft | 395 kts | 272° |
| 2026-05-08 05:42 | 40.13910 | -111.04378 | 22439 ft | 391 kts | 272° |
| 2026-05-08 05:43 | 40.13856 | -111.07915 | 21926 ft | 386 kts | 272° |
| 2026-05-08 05:43 | 40.13802 | -111.11410 | 21433 ft | 382 kts | 272° |
| 2026-05-08 05:43 | 40.13747 | -111.14861 | 20931 ft | 378 kts | 272° |
| 2026-05-08 05:43 | 40.13693 | -111.18285 | 20436 ft | 374 kts | 272° |
| 2026-05-08 05:44 | 40.13638 | -111.21629 | 19960 ft | 370 kts | 272° |
| 2026-05-08 05:44 | 40.13583 | -111.24974 | 19480 ft | 366 kts | 272° |
| 2026-05-08 05:44 | 40.13526 | -111.28277 | 19004 ft | 362 kts | 272° |
| 2026-05-08 05:44 | 40.13470 | -111.31553 | 18566 ft | 358 kts | 272° |
| 2026-05-08 05:45 | 40.13412 | -111.34739 | 18542 ft | 342 kts | 272° |
| 2026-05-08 05:45 | 40.13357 | -111.37849 | 18524 ft | 347 kts | 272° |
| 2026-05-08 05:45 | 40.13302 | -111.41032 | 18500 ft | 350 kts | 272° |
| 2026-05-08 05:45 | 40.13244 | -111.44162 | 18122 ft | 342 kts | 272° |
| 2026-05-08 05:46 | 40.13188 | -111.47264 | 17520 ft | 338 kts | 272° |
| 2026-05-08 05:46 | 40.13131 | -111.50320 | 16852 ft | 336 kts | 272° |
| 2026-05-08 05:46 | 40.13121 | -111.53394 | 15852 ft | 341 kts | 278° |
| 2026-05-08 05:46 | 40.13757 | -111.56361 | 15164 ft | 336 kts | 293° |
| 2026-05-08 05:47 | 40.14688 | -111.59114 | 15009 ft | 329 kts | 295° |
| 2026-05-08 05:47 | 40.15668 | -111.61833 | 15005 ft | 339 kts | 296° |
| 2026-05-08 05:47 | 40.16950 | -111.64337 | 15007 ft | 323 kts | 311° |
| 2026-05-08 05:47 | 40.18457 | -111.66384 | 15006 ft | 301 kts | 314° |
| 2026-05-08 05:48 | 40.19893 | -111.68281 | 14898 ft | 291 kts | 313° |
| 2026-05-08 05:48 | 40.21310 | -111.70175 | 14681 ft | 291 kts | 313° |
| 2026-05-08 05:48 | 40.22716 | -111.72059 | 14428 ft | 287 kts | 313° |
| 2026-05-08 05:48 | 40.24114 | -111.73939 | 14036 ft | 289 kts | 312° |
| 2026-05-08 05:49 | 40.25504 | -111.75810 | 13645 ft | 284 kts | 312° |
| 2026-05-08 05:49 | 40.26875 | -111.77660 | 13366 ft | 283 kts | 312° |
| 2026-05-08 05:49 | 40.28227 | -111.79489 | 13124 ft | 283 kts | 312° |
| 2026-05-08 05:49 | 40.29597 | -111.81342 | 12888 ft | 282 kts | 312° |
| 2026-05-08 05:50 | 40.30959 | -111.83188 | 12655 ft | 282 kts | 312° |
| 2026-05-08 05:50 | 40.32327 | -111.85042 | 12415 ft | 282 kts | 312° |
| 2026-05-08 05:50 | 40.33692 | -111.86892 | 12179 ft | 281 kts | 314° |
| 2026-05-08 05:50 | 40.35283 | -111.88304 | 11943 ft | 273 kts | 331° |
| 2026-05-08 05:51 | 40.36989 | -111.89322 | 11715 ft | 267 kts | 334° |
| 2026-05-08 05:51 | 40.38684 | -111.90263 | 11482 ft | 262 kts | 334° |
| 2026-05-08 05:51 | 40.40354 | -111.91183 | 11265 ft | 259 kts | 335° |
| 2026-05-08 05:51 | 40.42033 | -111.92048 | 11009 ft | 262 kts | 343° |
| 2026-05-08 05:52 | 40.43842 | -111.92428 | 10693 ft | 264 kts | 351° |
| 2026-05-08 05:52 | 40.45674 | -111.92650 | 10355 ft | 264 kts | 352° |
| 2026-05-08 05:52 | 40.47506 | -111.92857 | 10051 ft | 263 kts | 353° |
| 2026-05-08 05:52 | 40.49306 | -111.93060 | 9664 ft | 263 kts | 353° |
| 2026-05-08 05:53 | 40.51116 | -111.93266 | 9279 ft | 259 kts | 353° |
| 2026-05-08 05:53 | 40.52885 | -111.93463 | 9004 ft | 251 kts | 353° |
| 2026-05-08 05:53 | 40.54610 | -111.93656 | 8654 ft | 247 kts | 353° |
| 2026-05-08 05:53 | 40.56305 | -111.93851 | 8312 ft | 242 kts | 353° |
| 2026-05-08 05:54 | 40.57962 | -111.94043 | 7995 ft | 237 kts | 353° |
| 2026-05-08 05:54 | 40.59579 | -111.94231 | 7709 ft | 228 kts | 353° |
| 2026-05-08 05:54 | 40.61127 | -111.94409 | 7404 ft | 218 kts | 353° |
| 2026-05-08 05:54 | 40.62611 | -111.94581 | 7122 ft | 210 kts | 353° |
| 2026-05-08 05:55 | 40.64031 | -111.94746 | 6874 ft | 199 kts | 353° |
| 2026-05-08 05:55 | 40.65383 | -111.94902 | 6613 ft | 191 kts | 353° |
| 2026-05-08 05:55 | 40.66664 | -111.95050 | 6373 ft | 178 kts | 353° |
| 2026-05-08 05:55 | 40.67853 | -111.95187 | 6109 ft | 165 kts | 353° |
| 2026-05-08 05:56 | 40.68955 | -111.95316 | 5906 ft | 155 kts | 353° |
| 2026-05-08 05:56 | 40.70025 | -111.95441 | 5696 ft | 153 kts | 354° |
| 2026-05-08 05:56 | 40.71078 | -111.95565 | 5480 ft | 150 kts | 354° |
| 2026-05-08 05:56 | 40.72110 | -111.95684 | 5294 ft | 148 kts | 354° |
| 2026-05-08 05:57 | 40.73133 | -111.95806 | 5084 ft | 148 kts | 353° |
| 2026-05-08 05:57 | 40.74153 | -111.96038 | 4879 ft | 149 kts | 349° |
| 2026-05-08 05:57 | 40.75182 | -111.96207 | 4652 ft | 152 kts | 355° |
| 2026-05-08 05:57 | 40.76254 | -111.96252 | 4433 ft | 151 kts | 1° |
| 2026-05-08 05:58 | 40.77293 | -111.96219 | 4256 ft | 149 kts | 1° |
| 2026-05-08 05:58 | 40.78166 | -111.96212 | 4234 ft | 99 kts | 359° |
| 2026-05-08 05:58 | 40.78721 | -111.96207 | 4238 ft | 71 kts | 360° |
| 2026-05-08 05:58 | 40.79193 | -111.96257 | 4237 ft | 66 kts | 336° |
| 2026-05-08 05:59 | 40.79580 | -111.96541 | 4235 ft | 58 kts | 328° |
| 2026-05-08 05:59 | 40.79789 | -111.96744 | 4234 ft | 13 kts | 261° |
| 2026-05-08 05:59 | 40.79778 | -111.96861 | 4234 ft | 13 kts | 263° |
| 2026-05-08 05:59 | 40.79763 | -111.96980 | 4235 ft | 13 kts | 260° |
| 2026-05-08 06:00 | 40.79746 | -111.97091 | 4239 ft | 12 kts | 258° |
| 2026-05-08 06:00 | 40.79732 | -111.97188 | 4240 ft | 11 kts | 258° |
| 2026-05-08 06:00 | 40.79718 | -111.97292 | 4238 ft | 13 kts | 263° |
| 2026-05-08 06:00 | 40.79706 | -111.97431 | 4236 ft | 18 kts | 265° |
| 2026-05-08 06:01 | 40.79695 | -111.97602 | 4236 ft | 19 kts | 265° |
| 2026-05-08 06:01 | 40.79683 | -111.97779 | 4235 ft | 20 kts | 265° |
| 2026-05-08 06:01 | 40.79602 | -111.97868 | 4234 ft | 17 kts | 175° |
| 2026-05-08 06:01 | 40.79482 | -111.97862 | 4234 ft | 18 kts | 180° |
| 2026-05-08 06:02 | 40.79359 | -111.97846 | 4234 ft | 18 kts | 173° |
| 2026-05-08 06:02 | 40.79243 | -111.97835 | 4237 ft | 14 kts | 182° |
| 2026-05-08 06:02 | 40.79185 | -111.97867 | 4238 ft | 8 kts | 207° |
| 2026-05-08 06:02 | 40.79136 | -111.97882 | 4238 ft | 7 kts | 179° |
| 2026-05-08 06:03 | 40.79082 | -111.97881 | 4238 ft | 8 kts | 179° |
| 2026-05-08 06:03 | 40.79034 | -111.97900 | 4237 ft | 7 kts | 220° |
| 2026-05-08 06:03 | 40.79010 | -111.97959 | 4236 ft | 8 kts | 246° |
| 2026-05-08 06:03 | 40.78989 | -111.97994 | 4237 ft | 3 kts | 213° |
| 2026-05-08 06:04 | 40.78965 | -111.98008 | 4236 ft | 4 kts | 199° |
| 2026-05-08 06:04 | 40.78945 | -111.98025 | 4237 ft | 2 kts | 227° |
| 2026-05-08 06:04 | 40.78931 | -111.98047 | 4237 ft | 4 kts | 230° |
| 2026-05-08 06:04 | 40.78913 | -111.98076 | 4235 ft | 0 kts | 230° |